createdAt,value
2018-12-19T00:01:24.355Z,2.56
2018-12-19T00:03:51.805Z,2.57
2018-12-19T00:06:19.253Z,2.61
2018-12-19T00:08:46.692Z,2.52
2018-12-19T00:11:14.136Z,2.55
2018-12-19T00:13:41.584Z,2.58
2018-12-19T00:16:09.029Z,2.58
2018-12-19T00:18:36.462Z,2.60
2018-12-19T00:21:03.914Z,2.51
2018-12-19T00:23:31.410Z,2.55
2018-12-19T00:25:58.862Z,2.50
2018-12-19T00:28:26.306Z,2.54
2018-12-19T00:30:53.831Z,2.51
2018-12-19T00:33:21.266Z,2.50
2018-12-19T00:35:48.709Z,2.54
2018-12-19T00:38:16.171Z,2.53
2018-12-19T00:40:43.625Z,2.55
2018-12-19T00:43:11.052Z,2.52
2018-12-19T00:45:38.505Z,2.51
2018-12-19T00:48:05.946Z,2.50
2018-12-19T00:50:33.397Z,2.60
2018-12-19T00:53:00.832Z,2.59
2018-12-19T00:55:28.281Z,2.58
2018-12-19T00:57:55.722Z,2.56
2018-12-19T01:00:23.165Z,2.51
2018-12-19T01:02:50.605Z,2.56
2018-12-19T01:05:18.055Z,2.55
2018-12-19T01:07:45.490Z,2.59
2018-12-19T01:10:12.938Z,2.61
2018-12-19T01:12:41.503Z,2.64
2018-12-19T01:15:08.988Z,2.50
2018-12-19T01:17:36.424Z,2.59
2018-12-19T01:20:03.938Z,2.56
2018-12-19T01:22:31.372Z,2.54
2018-12-19T01:24:58.892Z,2.51
2018-12-19T01:27:26.328Z,2.62
2018-12-19T01:29:53.773Z,2.51
2018-12-19T01:32:21.212Z,2.54
2018-12-19T01:34:48.660Z,2.55
2018-12-19T01:37:16.094Z,2.54
2018-12-19T01:39:43.545Z,2.58
2018-12-19T01:42:11.706Z,2.51
2018-12-19T01:44:39.156Z,2.49
2018-12-19T01:47:06.588Z,2.47
2018-12-19T01:49:34.039Z,2.52
2018-12-19T01:52:01.473Z,2.47
2018-12-19T01:54:28.933Z,2.43
2018-12-19T01:56:56.374Z,2.38
2018-12-19T01:59:23.819Z,2.43
2018-12-19T02:01:51.268Z,2.44
2018-12-19T02:04:18.713Z,2.38
2018-12-19T02:06:46.152Z,2.36
2018-12-19T02:09:13.603Z,2.44
2018-12-19T02:11:41.037Z,2.38
2018-12-19T02:14:08.481Z,2.36
2018-12-19T02:16:35.912Z,2.36
2018-12-19T02:19:03.361Z,2.39
2018-12-19T02:21:30.813Z,2.42
2018-12-19T02:23:58.262Z,2.45
2018-12-19T02:26:25.708Z,2.44
2018-12-19T02:28:53.137Z,2.43
2018-12-19T02:31:20.594Z,2.39
2018-12-19T02:33:48.024Z,2.35
2018-12-19T02:36:15.470Z,2.36
2018-12-19T02:38:42.954Z,2.38
2018-12-19T02:41:10.404Z,2.37
2018-12-19T02:43:37.846Z,2.31
2018-12-19T02:46:05.289Z,2.27
2018-12-19T02:48:32.724Z,2.37
2018-12-19T02:51:00.168Z,2.37
2018-12-19T02:53:27.600Z,2.32
2018-12-19T02:55:55.045Z,2.28
2018-12-19T02:58:22.482Z,2.32
2018-12-19T03:00:49.926Z,2.33
2018-12-19T03:03:18.126Z,2.33
2018-12-19T03:05:45.566Z,2.22
2018-12-19T03:08:13.073Z,2.25
2018-12-19T03:10:40.508Z,2.30
2018-12-19T03:13:07.941Z,2.25
2018-12-19T03:15:35.387Z,2.27
2018-12-19T03:18:02.830Z,2.26
2018-12-19T03:20:30.275Z,2.24
2018-12-19T03:22:57.714Z,2.23
2018-12-19T03:25:25.229Z,2.15
2018-12-19T03:27:52.665Z,2.25
2018-12-19T03:30:20.102Z,2.27
2018-12-19T03:32:47.540Z,2.25
2018-12-19T03:35:15.299Z,2.12
2018-12-19T03:37:42.733Z,2.16
2018-12-19T03:40:10.183Z,2.30
2018-12-19T03:42:37.618Z,2.28
2018-12-19T03:45:05.130Z,2.19
2018-12-19T03:47:32.565Z,2.28
2018-12-19T03:50:00.263Z,2.20
2018-12-19T03:52:27.707Z,2.24
2018-12-19T03:54:55.141Z,2.23
2018-12-19T03:57:22.832Z,2.20
2018-12-19T03:59:50.298Z,2.14
2018-12-19T04:02:17.750Z,2.17
2018-12-19T04:04:45.185Z,2.22
2018-12-19T04:07:12.627Z,2.22
2018-12-19T04:09:40.113Z,2.16
2018-12-19T04:12:07.565Z,2.20
2018-12-19T04:14:35.015Z,2.21
2018-12-19T04:17:02.587Z,2.21
2018-12-19T04:19:30.110Z,2.06
2018-12-19T04:21:57.606Z,2.15
2018-12-19T04:24:25.060Z,2.14
2018-12-19T04:26:52.553Z,2.14
2018-12-19T04:29:19.985Z,2.08
2018-12-19T04:31:47.424Z,2.17
2018-12-19T04:34:14.937Z,2.17
2018-12-19T04:36:42.378Z,2.21
2018-12-19T04:39:09.817Z,2.22
2018-12-19T04:41:37.265Z,2.25
2018-12-19T04:44:04.692Z,2.27
2018-12-19T04:46:32.184Z,2.26
2018-12-19T04:48:59.623Z,2.27
2018-12-19T04:51:27.062Z,2.29
2018-12-19T04:53:55.370Z,2.23
2018-12-19T04:56:22.813Z,2.22
2018-12-19T04:58:50.248Z,2.23
2018-12-19T05:01:17.705Z,2.23
2018-12-19T05:03:45.135Z,2.32
2018-12-19T05:06:12.570Z,2.28
2018-12-19T05:08:40.000Z,2.26
2018-12-19T05:11:07.449Z,2.15
2018-12-19T05:13:34.882Z,2.21
2018-12-19T05:16:02.328Z,2.28
2018-12-19T05:18:29.760Z,2.21
2018-12-19T05:20:57.196Z,2.18
2018-12-19T05:23:24.642Z,2.28
2018-12-19T05:25:52.077Z,2.22
2018-12-19T05:28:19.513Z,2.30
2018-12-19T05:30:46.949Z,2.26
2018-12-19T05:33:14.387Z,2.18
2018-12-19T05:35:41.832Z,2.28
2018-12-19T05:38:09.261Z,2.27
2018-12-19T05:40:36.705Z,2.30
2018-12-19T05:43:04.148Z,2.33
2018-12-19T05:45:31.576Z,2.25
2018-12-19T05:47:59.022Z,2.34
2018-12-19T05:50:28.856Z,2.28
2018-12-19T05:52:56.292Z,2.28
2018-12-19T05:55:23.756Z,2.40
2018-12-19T05:57:51.492Z,2.32
2018-12-19T06:00:19.180Z,2.27
2018-12-19T06:02:46.629Z,2.20
2018-12-19T06:05:14.070Z,2.26
2018-12-19T06:07:41.603Z,2.36
2018-12-19T06:10:09.054Z,2.38
2018-12-19T06:12:36.581Z,2.30
2018-12-19T06:15:04.021Z,2.29
2018-12-19T06:17:31.518Z,2.23
2018-12-19T06:19:58.953Z,2.30
2018-12-19T06:22:26.481Z,2.21
2018-12-19T06:24:53.920Z,2.22
2018-12-19T06:27:21.365Z,2.29
2018-12-19T06:29:48.809Z,2.32
2018-12-19T06:32:16.257Z,2.27
2018-12-19T06:34:43.710Z,2.21
2018-12-19T06:37:11.164Z,2.27
2018-12-19T06:39:38.614Z,2.28
2018-12-19T06:42:06.061Z,2.30
2018-12-19T06:44:33.500Z,2.31
2018-12-19T06:47:00.944Z,2.31
2018-12-19T06:49:28.393Z,2.29
2018-12-19T06:51:55.842Z,2.27
2018-12-19T06:54:23.281Z,2.27
2018-12-19T06:56:50.723Z,2.21
2018-12-19T06:59:18.162Z,2.22
2018-12-19T07:01:45.596Z,2.19
2018-12-19T07:04:13.045Z,2.16
2018-12-19T07:06:40.492Z,2.26
2018-12-19T07:09:08.691Z,2.26
2018-12-19T07:11:36.146Z,2.13
2018-12-19T07:14:03.580Z,2.29
2018-12-19T07:16:31.024Z,2.28
2018-12-19T07:18:58.471Z,2.35
2018-12-19T07:21:26.083Z,2.40
2018-12-19T07:23:53.637Z,2.29
2018-12-19T07:26:21.090Z,2.34
2018-12-19T07:28:48.536Z,2.32
2018-12-19T07:31:15.980Z,2.45
2018-12-19T07:33:43.441Z,2.37
2018-12-19T07:36:10.952Z,2.46
2018-12-19T07:38:38.401Z,2.44
2018-12-19T07:41:05.829Z,2.47
2018-12-19T07:43:33.301Z,2.49
2018-12-19T07:46:00.782Z,2.47
2018-12-19T07:48:28.576Z,2.50
2018-12-19T07:50:56.008Z,2.55
2018-12-19T07:53:23.456Z,2.55
2018-12-19T07:55:51.154Z,2.54
2018-12-19T07:58:18.618Z,2.56
2018-12-19T08:00:46.061Z,2.53
2018-12-19T08:03:13.511Z,2.56
2018-12-19T08:05:40.964Z,2.53
2018-12-19T08:08:08.418Z,2.53
2018-12-19T08:10:35.856Z,2.63
2018-12-19T08:13:03.308Z,2.61
2018-12-19T08:15:30.759Z,2.68
2018-12-19T08:17:58.221Z,2.67
2018-12-19T08:20:25.661Z,2.70
2018-12-19T08:22:53.112Z,2.78
2018-12-19T08:25:20.560Z,2.76
2018-12-19T08:27:48.039Z,2.81
2018-12-19T08:30:15.477Z,2.81
2018-12-19T08:32:43.030Z,2.84
2018-12-19T08:35:10.482Z,2.91
2018-12-19T08:37:37.932Z,2.94
2018-12-19T08:40:05.382Z,2.92
2018-12-19T08:42:32.820Z,2.97
2018-12-19T08:45:00.260Z,3.00
2018-12-19T08:47:27.705Z,3.08
2018-12-19T08:49:55.160Z,3.08
2018-12-19T08:52:22.610Z,3.10
2018-12-19T08:54:50.054Z,3.11
2018-12-19T08:57:17.501Z,3.10
2018-12-19T08:59:44.936Z,3.16
2018-12-19T09:02:12.409Z,3.17
2018-12-19T09:04:39.917Z,3.19
2018-12-19T09:07:07.357Z,3.23
2018-12-19T09:09:34.805Z,3.27
2018-12-19T09:12:02.288Z,3.36
2018-12-19T09:14:29.743Z,3.38
2018-12-19T09:16:57.199Z,3.41
2018-12-19T09:19:24.658Z,3.42
2018-12-19T09:21:52.101Z,3.43
2018-12-19T09:24:19.557Z,3.47
2018-12-19T09:26:47.066Z,3.45
2018-12-19T09:29:14.535Z,3.36
2018-12-19T09:31:41.960Z,3.42
2018-12-19T09:34:09.418Z,3.41
2018-12-19T09:36:36.933Z,3.39
2018-12-19T09:39:04.525Z,3.42
2018-12-19T09:41:31.963Z,3.41
2018-12-19T09:43:59.470Z,3.40
2018-12-19T09:46:26.904Z,3.46
2018-12-19T09:48:54.349Z,3.47
2018-12-19T09:51:21.806Z,3.45
2018-12-19T09:53:49.254Z,3.44
2018-12-19T09:56:16.702Z,3.47
2018-12-19T09:58:44.163Z,3.51
2018-12-19T10:01:11.608Z,3.50
2018-12-19T10:03:39.060Z,3.50
2018-12-19T10:06:06.502Z,3.52
2018-12-19T10:08:33.947Z,3.59
2018-12-19T10:11:01.484Z,3.53
2018-12-19T10:13:28.942Z,3.58
2018-12-19T10:15:56.376Z,3.60
2018-12-19T10:18:23.834Z,3.60
2018-12-19T10:20:51.276Z,3.67
2018-12-19T10:23:18.720Z,3.74
2018-12-19T10:25:48.142Z,3.71
2018-12-19T10:28:19.857Z,3.67
2018-12-19T10:30:47.635Z,3.76
2018-12-19T10:33:15.070Z,3.78
2018-12-19T10:35:42.515Z,3.85
2018-12-19T10:38:09.985Z,3.77
2018-12-19T10:40:37.436Z,3.74
2018-12-19T10:43:04.880Z,3.71
2018-12-19T10:45:32.322Z,3.74
2018-12-19T10:47:59.774Z,3.75
2018-12-19T10:50:27.221Z,3.77
2018-12-19T10:52:54.653Z,3.67
2018-12-19T10:55:22.104Z,3.69
2018-12-19T10:57:49.637Z,3.65
2018-12-19T11:00:22.369Z,3.64
2018-12-19T11:02:49.813Z,3.69
2018-12-19T11:05:17.280Z,3.81
2018-12-19T11:07:44.708Z,3.68
2018-12-19T11:10:12.200Z,3.75
2018-12-19T11:12:39.652Z,3.72
2018-12-19T11:15:09.053Z,3.66
2018-12-19T11:17:36.492Z,3.69
2018-12-19T11:20:03.992Z,3.71
2018-12-19T11:22:31.457Z,3.60
2018-12-19T11:24:58.893Z,3.68
2018-12-19T11:27:26.344Z,3.65
2018-12-19T11:29:53.792Z,3.63
2018-12-19T11:32:21.258Z,3.60
2018-12-19T11:34:48.712Z,3.60
2018-12-19T11:37:16.183Z,3.65
2018-12-19T11:39:43.697Z,3.70
2018-12-19T11:42:11.134Z,3.71
2018-12-19T11:44:38.602Z,3.66
2018-12-19T11:47:06.043Z,3.64
2018-12-19T11:49:33.500Z,3.62
2018-12-19T11:52:00.957Z,3.60
2018-12-19T11:54:28.406Z,3.60
2018-12-19T11:56:55.854Z,3.57
2018-12-19T11:59:23.326Z,3.60
2018-12-19T12:01:50.779Z,3.46
2018-12-19T12:04:18.234Z,3.56
2018-12-19T12:06:45.679Z,3.56
2018-12-19T12:09:13.126Z,3.46
2018-12-19T12:11:45.554Z,3.45
2018-12-19T12:14:10.000Z,3.50
2018-12-19T12:16:37.445Z,3.46
2018-12-19T12:19:04.925Z,3.41
2018-12-19T12:21:32.376Z,3.51
2018-12-19T12:23:59.906Z,3.45
2018-12-19T12:26:27.354Z,3.54
2018-12-19T12:28:54.801Z,3.43
2018-12-19T12:31:22.243Z,3.51
2018-12-19T12:33:50.773Z,3.47
2018-12-19T12:36:18.376Z,3.45
2018-12-19T12:38:45.837Z,3.44
2018-12-19T12:41:13.298Z,3.47
2018-12-19T12:43:40.736Z,3.47
2018-12-19T12:46:08.184Z,3.41
2018-12-19T12:48:35.645Z,3.34
2018-12-19T12:51:03.108Z,3.40
2018-12-19T12:53:30.546Z,3.42
2018-12-19T12:55:57.989Z,3.37
2018-12-19T12:58:25.420Z,3.34
2018-12-19T13:00:52.866Z,3.38
2018-12-19T13:03:20.305Z,3.42
2018-12-19T13:05:47.745Z,3.39
2018-12-19T13:08:15.205Z,3.43
2018-12-19T13:10:42.652Z,3.43
2018-12-19T13:13:10.113Z,3.41
2018-12-19T13:15:43.746Z,3.40
2018-12-19T13:18:11.185Z,3.39
2018-12-19T13:20:38.640Z,3.37
2018-12-19T13:23:06.076Z,3.42
2018-12-19T13:25:33.580Z,3.40
2018-12-19T13:28:01.288Z,3.32
2018-12-19T13:30:28.721Z,3.37
2018-12-19T13:32:56.160Z,3.40
2018-12-19T13:35:23.592Z,3.38
2018-12-19T13:37:51.053Z,3.34
2018-12-19T13:40:18.486Z,3.36
2018-12-19T13:42:45.925Z,3.35
2018-12-19T13:45:13.384Z,3.35
2018-12-19T13:47:40.825Z,3.37
2018-12-19T13:50:08.268Z,3.35
2018-12-19T13:52:35.721Z,3.37
2018-12-19T13:55:03.159Z,3.37
2018-12-19T13:57:30.601Z,3.31
2018-12-19T13:59:58.037Z,3.22
2018-12-19T14:02:25.491Z,3.28
2018-12-19T14:04:52.932Z,3.27
2018-12-19T14:07:21.340Z,3.19
2018-12-19T14:09:48.870Z,3.20
2018-12-19T14:12:16.324Z,3.23
2018-12-19T14:14:43.769Z,3.21
2018-12-19T14:17:11.206Z,3.22
2018-12-19T14:19:38.672Z,3.20
2018-12-19T14:22:06.121Z,3.24
2018-12-19T14:24:33.577Z,3.26
2018-12-19T14:27:01.017Z,3.22
2018-12-19T14:29:28.520Z,3.22
2018-12-19T14:31:55.977Z,3.24
2018-12-19T14:34:23.413Z,3.21
2018-12-19T14:36:50.915Z,3.18
2018-12-19T14:39:18.382Z,3.17
2018-12-19T14:41:45.823Z,3.19
2018-12-19T14:44:13.523Z,3.13
2018-12-19T14:46:40.936Z,3.13
2018-12-19T14:49:13.760Z,3.14
2018-12-19T14:51:37.796Z,3.15
2018-12-19T14:54:05.227Z,3.11
2018-12-19T14:56:32.677Z,3.09
2018-12-19T14:59:00.120Z,3.10
2018-12-19T15:01:27.564Z,3.03
2018-12-19T15:03:55.014Z,3.05
2018-12-19T15:06:22.476Z,3.06
2018-12-19T15:08:49.995Z,3.10
2018-12-19T15:11:17.432Z,3.08
2018-12-19T15:13:44.876Z,3.11
2018-12-19T15:16:12.316Z,3.14
2018-12-19T15:18:39.825Z,3.12
2018-12-19T15:21:07.285Z,3.10
2018-12-19T15:23:34.757Z,3.14
2018-12-19T15:26:02.244Z,3.02
2018-12-19T15:28:29.682Z,3.03
2018-12-19T15:30:57.124Z,3.08
2018-12-19T15:33:24.553Z,3.06
2018-12-19T15:35:52.047Z,3.03
2018-12-19T15:38:19.480Z,3.00
2018-12-19T15:40:46.918Z,2.93
2018-12-19T15:43:14.398Z,3.04
2018-12-19T15:45:41.839Z,2.93
2018-12-19T15:48:09.279Z,2.92
2018-12-19T15:50:36.711Z,2.99
2018-12-19T15:53:04.165Z,2.85
2018-12-19T15:55:31.622Z,2.90
2018-12-19T15:57:59.053Z,2.93
2018-12-19T16:00:26.520Z,2.84
2018-12-19T16:02:53.975Z,2.80
2018-12-19T16:05:21.477Z,2.83
2018-12-19T16:07:48.912Z,2.80
2018-12-19T16:10:16.808Z,2.81
2018-12-19T16:12:44.257Z,2.83
2018-12-19T16:15:11.698Z,2.86
2018-12-19T16:17:39.140Z,2.95
2018-12-19T16:20:06.583Z,3.27
2018-12-19T16:22:34.043Z,3.38
2018-12-19T16:25:01.481Z,3.51
2018-12-19T16:27:28.932Z,3.68
2018-12-19T16:29:56.376Z,3.71
2018-12-19T16:32:23.813Z,3.67
2018-12-19T16:34:51.256Z,3.69
2018-12-19T16:37:18.692Z,3.75
2018-12-19T16:39:46.128Z,3.70
2018-12-19T16:42:13.578Z,3.72
2018-12-19T16:44:41.021Z,3.82
2018-12-19T16:47:08.456Z,3.80
2018-12-19T16:49:35.902Z,3.73
2018-12-19T16:52:03.481Z,3.77
2018-12-19T16:54:30.938Z,3.79
2018-12-19T16:56:58.465Z,3.71
2018-12-19T16:59:25.896Z,3.74
2018-12-19T17:01:53.380Z,3.64
2018-12-19T17:04:20.825Z,3.56
2018-12-19T17:06:48.261Z,3.61
2018-12-19T17:09:15.710Z,3.59
2018-12-19T17:11:43.148Z,3.68
2018-12-19T17:14:10.584Z,3.58
2018-12-19T17:16:38.094Z,3.76
2018-12-19T17:19:05.540Z,3.66
2018-12-19T17:21:32.988Z,3.62
2018-12-19T17:24:00.604Z,3.72
2018-12-19T17:26:28.058Z,3.61
2018-12-19T17:28:55.492Z,3.56
2018-12-19T17:31:22.989Z,3.47
2018-12-19T17:33:50.491Z,3.49
2018-12-19T17:36:17.929Z,3.38
2018-12-19T17:38:46.253Z,3.40
2018-12-19T17:41:13.696Z,3.37
2018-12-19T17:43:41.136Z,3.35
2018-12-19T17:46:08.568Z,3.37
2018-12-19T17:48:36.017Z,3.45
2018-12-19T17:51:03.464Z,3.48
2018-12-19T17:53:30.904Z,3.28
2018-12-19T17:55:58.370Z,3.30
2018-12-19T17:58:25.813Z,3.30
2018-12-19T18:00:53.300Z,3.38
2018-12-19T18:03:20.755Z,3.34
2018-12-19T18:05:48.192Z,3.22
2018-12-19T18:08:15.725Z,3.28
2018-12-19T18:10:43.163Z,3.27
2018-12-19T18:13:10.614Z,3.23
2018-12-19T18:15:38.054Z,3.08
2018-12-19T18:18:05.504Z,3.09
2018-12-19T18:20:32.933Z,3.04
2018-12-19T18:23:01.090Z,3.18
2018-12-19T18:25:28.525Z,3.12
2018-12-19T18:27:55.981Z,3.12
2018-12-19T18:30:23.412Z,3.09
2018-12-19T18:32:50.865Z,3.15
2018-12-19T18:35:18.297Z,3.11
2018-12-19T18:37:45.832Z,3.08
2018-12-19T18:40:13.265Z,3.11
2018-12-19T18:42:40.722Z,3.15
2018-12-19T18:45:11.896Z,3.06
2018-12-19T18:47:37.562Z,3.13
2018-12-19T18:50:05.010Z,3.06
2018-12-19T18:52:32.460Z,3.04
2018-12-19T18:54:59.886Z,3.04
2018-12-19T18:57:27.332Z,3.02
2018-12-19T18:59:54.816Z,3.09
2018-12-19T19:02:22.294Z,3.02
2018-12-19T19:04:49.769Z,3.15
2018-12-19T19:07:17.302Z,3.18
2018-12-19T19:09:44.773Z,3.23
2018-12-19T19:12:12.217Z,3.19
2018-12-19T19:14:39.700Z,3.13
2018-12-19T19:17:07.153Z,3.21
2018-12-19T19:19:34.602Z,3.23
2018-12-19T19:22:02.038Z,3.10
2018-12-19T19:24:29.482Z,3.18
2018-12-19T19:26:56.930Z,3.17
2018-12-19T19:29:24.416Z,3.14
2018-12-19T19:31:51.855Z,3.12
2018-12-19T19:34:24.880Z,3.12
2018-12-19T19:36:48.722Z,3.16
2018-12-19T19:39:16.417Z,3.12
2018-12-19T19:41:43.920Z,3.15
2018-12-19T19:44:11.364Z,3.13
2018-12-19T19:46:38.809Z,3.04
2018-12-19T19:49:06.248Z,2.89
2018-12-19T19:51:33.707Z,3.02
2018-12-19T19:54:01.156Z,3.02
2018-12-19T19:56:28.609Z,2.97
2018-12-19T19:58:56.060Z,2.99
2018-12-19T20:01:23.503Z,3.00
2018-12-19T20:03:50.932Z,3.01
2018-12-19T20:06:18.380Z,3.00
2018-12-19T20:08:45.824Z,3.00
2018-12-19T20:11:13.252Z,2.91
2018-12-19T20:13:40.698Z,2.98
2018-12-19T20:16:08.148Z,2.94
2018-12-19T20:18:35.644Z,2.99
2018-12-19T20:21:03.083Z,2.89
2018-12-19T20:23:30.523Z,2.84
2018-12-19T20:25:57.966Z,2.92
2018-12-19T20:28:25.408Z,2.99
2018-12-19T20:30:52.845Z,2.95
2018-12-19T20:33:20.284Z,2.95
2018-12-19T20:35:47.726Z,2.85
2018-12-19T20:38:15.176Z,2.80
2018-12-19T20:40:42.617Z,2.81
2018-12-19T20:43:10.053Z,2.82
2018-12-19T20:45:37.497Z,2.90
2018-12-19T20:48:04.981Z,2.84
2018-12-19T20:50:32.425Z,2.85
2018-12-19T20:52:59.896Z,2.85
2018-12-19T20:55:27.422Z,2.93
2018-12-19T20:57:54.919Z,2.94
2018-12-19T21:00:22.440Z,2.82
2018-12-19T21:02:49.884Z,2.82
2018-12-19T21:05:17.957Z,2.97
2018-12-19T21:07:45.400Z,2.89
2018-12-19T21:10:12.857Z,2.93
2018-12-19T21:12:40.300Z,2.87
2018-12-19T21:15:07.749Z,2.91
2018-12-19T21:17:40.567Z,2.92
2018-12-19T21:20:07.997Z,2.88
2018-12-19T21:22:35.456Z,2.91
2018-12-19T21:25:02.936Z,2.97
2018-12-19T21:27:30.376Z,2.98
2018-12-19T21:29:57.816Z,2.90
2018-12-19T21:32:25.243Z,2.91
2018-12-19T21:34:52.717Z,2.94
2018-12-19T21:37:20.148Z,2.90
2018-12-19T21:39:47.594Z,2.81
2018-12-19T21:42:15.029Z,2.86
2018-12-19T21:44:42.461Z,2.82
2018-12-19T21:47:09.907Z,2.88
2018-12-19T21:49:37.416Z,2.82
2018-12-19T21:52:04.859Z,2.77
2018-12-19T21:54:32.296Z,2.81
2018-12-19T21:56:59.743Z,2.75
2018-12-19T21:59:27.174Z,2.83
2018-12-19T22:01:54.686Z,2.80
2018-12-19T22:04:22.132Z,2.73
2018-12-19T22:06:49.665Z,2.73
2018-12-19T22:09:17.329Z,2.72
2018-12-19T22:11:44.769Z,2.72
2018-12-19T22:14:12.220Z,2.72
2018-12-19T22:16:45.156Z,2.80
2018-12-19T22:19:12.595Z,2.84
2018-12-19T22:21:40.029Z,2.75
2018-12-19T22:24:07.474Z,2.83
2018-12-19T22:26:34.979Z,2.77
2018-12-19T22:29:02.507Z,2.73
2018-12-19T22:31:29.962Z,2.72
2018-12-19T22:33:57.488Z,2.70
2018-12-19T22:36:25.023Z,2.81
2018-12-19T22:38:52.457Z,2.73
2018-12-19T22:41:19.886Z,2.79
2018-12-19T22:43:47.351Z,2.83
2018-12-19T22:46:14.857Z,2.83
2018-12-19T22:48:42.408Z,2.80
2018-12-19T22:51:09.936Z,2.90
2018-12-19T22:53:37.526Z,2.83
2018-12-19T22:56:05.903Z,2.80
2018-12-19T22:58:33.391Z,2.81
2018-12-19T23:01:06.351Z,2.83
2018-12-19T23:03:39.255Z,2.76
2018-12-19T23:06:06.843Z,2.78
2018-12-19T23:08:34.370Z,2.75
2018-12-19T23:11:01.893Z,2.81
2018-12-19T23:13:29.418Z,2.71
2018-12-19T23:15:56.918Z,2.73
2018-12-19T23:18:27.418Z,2.80
2018-12-19T23:20:54.912Z,2.77
2018-12-19T23:23:23.238Z,2.69
2018-12-19T23:25:50.920Z,2.70
2018-12-19T23:28:18.471Z,2.68
2018-12-19T23:30:46.075Z,2.65
2018-12-19T23:33:13.633Z,2.66
2018-12-19T23:35:41.076Z,2.61
2018-12-19T23:38:08.578Z,2.57
2018-12-19T23:40:36.029Z,2.56
2018-12-19T23:43:03.541Z,2.51
2018-12-19T23:45:30.979Z,2.54
2018-12-19T23:47:58.430Z,2.51
2018-12-19T23:50:25.936Z,2.47
2018-12-19T23:52:53.368Z,2.50
2018-12-19T23:55:20.839Z,2.54
2018-12-19T23:57:48.465Z,2.60
